Time;durP1;ratioP1;P1;durP2;ratioP2;P2;SDS_P1;SDS_P2;PMS_P1;PMS_P2;Temp;Humidity;BMP_temperature;BMP_pressure;BME280_temperature;BME280_humidity;BME280_pressure;Samples;Min_cycle;Max_cycle;Signal;HPM_P1;HPM_P2
2021/10/05 00:00:31;;;;;;;7.28;5.35;;;21.80;65.10;;;;;;5213756;28;20052;-84
2021/10/05 00:03:07;;;;;;;8.52;6.20;;;21.80;65.10;;;;;;5215292;28;20401;-84
2021/10/05 00:05:39;;;;;;;8.27;5.30;;;21.70;65.00;;;;;;5228834;28;20060;-83
2021/10/05 00:08:12;;;;;;;7.13;5.40;;;21.70;65.00;;;;;;5214986;28;20056;-84
2021/10/05 00:10:44;;;;;;;7.63;5.60;;;21.80;65.20;;;;;;5214572;28;20056;-83
2021/10/05 00:13:17;;;;;;;6.10;4.93;;;21.70;65.70;;;;;;5231587;28;20070;-83
2021/10/05 00:15:50;;;;;;;9.27;5.95;;;21.70;65.10;;;;;;5229715;28;20053;-84
2021/10/05 00:18:23;;;;;;;8.75;5.93;;;21.80;65.20;;;;;;5229894;28;20418;-83
2021/10/05 00:20:56;;;;;;;7.37;5.63;;;21.70;65.10;;;;;;5231259;28;20044;-84
2021/10/05 00:23:28;;;;;;;9.38;6.35;;;21.70;65.10;;;;;;5199386;28;20441;-83
2021/10/05 00:26:01;;;;;;;6.97;6.10;;;21.70;65.20;;;;;;5211902;28;20552;-84
2021/10/05 00:28:33;;;;;;;7.40;6.03;;;21.70;65.10;;;;;;5232877;28;20091;-84
2021/10/05 00:31:07;;;;;;;7.10;5.77;;;21.70;65.10;;;;;;5216408;28;20044;-84
2021/10/05 00:33:39;;;;;;;8.85;6.13;;;21.70;65.10;;;;;;5217148;28;20216;-83
2021/10/05 00:36:12;;;;;;;7.38;6.03;;;21.70;65.20;;;;;;5186493;28;20071;-84
2021/10/05 00:38:44;;;;;;;6.95;5.72;;;21.70;65.10;;;;;;5230784;28;20041;-84
2021/10/05 00:41:17;;;;;;;6.53;5.50;;;21.70;65.20;;;;;;5212715;28;20047;-84
2021/10/05 00:43:50;;;;;;;7.67;6.10;;;21.70;65.20;;;;;;5229035;28;20052;-84
2021/10/05 00:46:23;;;;;;;7.32;5.35;;;21.60;65.10;;;;;;5230175;28;20052;-84
2021/10/05 00:48:55;;;;;;;7.25;5.90;;;21.60;65.20;;;;;;5218752;28;20040;-84
2021/10/05 00:51:28;;;;;;;9.13;5.80;;;21.60;65.20;;;;;;5215130;28;20044;-84
2021/10/05 00:54:01;;;;;;;6.88;4.85;;;21.60;65.30;;;;;;5217913;28;20291;-84
2021/10/05 00:56:33;;;;;;;6.75;5.90;;;21.60;65.30;;;;;;5233660;28;20053;-84
2021/10/05 00:59:06;;;;;;;7.38;6.10;;;21.60;65.30;;;;;;5220451;28;20045;-84
2021/10/05 01:01:38;;;;;;;6.85;5.35;;;21.60;65.30;;;;;;5228427;28;20410;-84
2021/10/05 01:04:11;;;;;;;8.15;5.38;;;21.60;65.30;;;;;;5236420;28;20056;-84
2021/10/05 01:06:57;;;;;;;7.55;5.80;;;21.60;65.30;;;;;;5231238;28;20052;-84
2021/10/05 01:09:31;;;;;;;5.80;4.88;;;21.60;65.30;;;;;;5218494;28;20048;-84
2021/10/05 01:12:04;;;;;;;;;;;21.60;65.40;;;;;;5214754;28;20053;-84
2021/10/05 01:14:37;;;;;;;8.65;5.82;;;21.60;65.50;;;;;;5234429;28;19932;-84
2021/10/05 01:17:11;;;;;;;6.82;5.25;;;21.60;65.50;;;;;;5216926;28;20040;-84
2021/10/05 01:19:43;;;;;;;7.38;5.53;;;21.60;65.50;;;;;;5202662;28;20040;-84
2021/10/05 01:22:16;;;;;;;7.88;5.35;;;21.60;65.50;;;;;;5229856;28;20048;-84
2021/10/05 01:24:48;;;;;;;6.07;4.88;;;21.60;65.50;;;;;;5215759;28;20056;-84
2021/10/05 01:27:21;;;;;;;6.47;4.90;;;21.60;65.50;;;;;;5233686;28;20052;-84
2021/10/05 01:29:53;;;;;;;8.48;5.10;;;21.60;65.60;;;;;;5217069;28;20403;-85
2021/10/05 01:32:26;;;;;;;6.57;5.03;;;21.60;65.60;;;;;;5213543;28;20198;-84
2021/10/05 01:34:59;;;;;;;10.73;5.10;;;21.60;65.60;;;;;;5199187;28;20040;-84
2021/10/05 01:37:32;;;;;;;8.05;5.57;;;21.60;65.60;;;;;;5212128;28;20625;-84
2021/10/05 01:40:07;;;;;;;9.07;5.43;;;21.60;65.60;;;;;;5200309;28;20052;-84
2021/10/05 01:42:40;;;;;;;8.00;5.20;;;21.60;65.50;;;;;;5217197;28;20048;-84
2021/10/05 01:45:12;;;;;;;6.73;5.30;;;21.60;65.60;;;;;;5217829;28;20045;-84
2021/10/05 01:47:45;;;;;;;9.13;5.68;;;21.60;65.60;;;;;;5233150;28;20605;-84
2021/10/05 01:50:18;;;;;;;6.82;4.53;;;21.60;65.60;;;;;;5232961;28;20053;-84
2021/10/05 01:52:51;;;;;;;6.07;4.80;;;21.60;65.60;;;;;;5214651;28;20139;-83
2021/10/05 01:55:24;;;;;;;7.20;5.40;;;21.50;65.60;;;;;;5191623;28;20063;-85
2021/10/05 01:57:56;;;;;;;7.72;5.03;;;21.50;65.60;;;;;;5229883;28;20052;-84
2021/10/05 02:00:29;;;;;;;8.63;5.90;;;21.50;65.60;;;;;;5226291;28;20051;-84
2021/10/05 02:03:02;;;;;;;7.00;4.97;;;21.50;65.60;;;;;;5226159;28;20474;-84
2021/10/05 02:05:35;;;;;;;8.63;5.00;;;21.50;65.70;;;;;;5228021;28;20633;-84
2021/10/05 02:08:09;;;;;;;7.30;4.83;;;21.50;65.80;;;;;;5231187;28;20310;-84
2021/10/05 02:10:43;;;;;;;6.53;5.25;;;21.50;65.80;;;;;;5228499;28;20057;-85
2021/10/05 02:13:15;;;;;;;6.75;5.22;;;21.50;65.70;;;;;;5232267;28;20048;-85
2021/10/05 02:15:49;;;;;;;7.85;5.18;;;21.50;65.70;;;;;;5215755;28;20410;-85
2021/10/05 02:18:21;;;;;;;;;;;21.50;65.70;;;;;;5218358;28;20051;-85
2021/10/05 02:20:54;;;;;;;7.18;5.03;;;21.50;65.70;;;;;;5230507;28;20139;-86
2021/10/05 02:26:18;;;;;;;6.82;5.32;;;21.50;65.80;;;;;;5231001;28;20036;-85
2021/10/05 02:28:50;;;;;;;6.78;5.32;;;21.50;65.80;;;;;;5217245;28;20045;-85
2021/10/05 02:31:23;;;;;;;9.27;5.47;;;21.50;65.80;;;;;;5230180;28;20517;-85
2021/10/05 02:33:56;;;;;;;7.57;5.65;;;21.50;65.80;;;;;;5213220;28;20896;-85
2021/10/05 02:36:28;;;;;;;6.82;5.20;;;21.50;65.80;;;;;;5199697;28;20484;-86
2021/10/05 02:39:02;;;;;;;8.95;5.63;;;21.50;65.80;;;;;;5214586;28;20112;-86
2021/10/05 02:41:35;;;;;;;6.50;4.93;;;21.50;65.90;;;;;;5232132;28;20059;-85
2021/10/05 02:44:07;;;;;;;7.60;5.30;;;21.50;65.80;;;;;;5197398;28;20060;-87
2021/10/05 02:46:40;;;;;;;6.20;4.80;;;21.40;65.80;;;;;;5227620;28;20053;-88
2021/10/05 02:49:13;;;;;;;6.17;4.43;;;21.40;65.80;;;;;;5217925;28;20059;-86
2021/10/05 02:51:53;;;;;;;7.32;5.28;;;21.50;65.90;;;;;;5203483;28;20287;-86
2021/10/05 02:54:26;;;;;;;7.70;5.50;;;21.50;65.90;;;;;;5215463;28;20071;-86
2021/10/05 02:56:58;;;;;;;7.30;5.38;;;21.40;65.90;;;;;;5215131;28;20036;-86
2021/10/05 03:14:25;;;;;;;5.18;2.30;;;21.40;66.30;;;;;;5197778;28;20406;-87
2021/10/05 03:16:57;;;;;;;2.38;1.92;;;21.40;66.40;;;;;;5196165;28;20051;-86
2021/10/05 03:19:30;;;;;;;3.53;2.10;;;21.50;66.40;;;;;;5181900;28;20415;-86
2021/10/05 03:22:02;;;;;;;1.93;1.63;;;21.50;66.50;;;;;;5213753;28;20052;-88
2021/10/05 03:24:35;;;;;;;2.50;1.95;;;21.40;66.50;;;;;;5217257;28;20044;-86
2021/10/05 03:27:10;;;;;;;2.88;2.00;;;21.50;66.50;;;;;;5203884;28;20047;-86
2021/10/05 03:29:43;;;;;;;2.45;1.70;;;21.50;66.50;;;;;;5194687;28;20044;-86
2021/10/05 03:32:15;;;;;;;2.33;1.70;;;21.50;66.50;;;;;;5234981;28;20036;-86
2021/10/05 03:34:48;;;;;;;2.15;1.80;;;21.50;66.50;;;;;;5226448;28;20060;-87
2021/10/05 03:37:21;;;;;;;2.17;1.77;;;21.60;66.60;;;;;;5211034;28;20067;-86
2021/10/05 03:39:53;;;;;;;2.88;1.80;;;21.60;66.50;;;;;;5209572;28;20064;-85
2021/10/05 03:42:27;;;;;;;4.30;1.60;;;21.60;66.50;;;;;;5229772;28;20073;-86
2021/10/05 03:45:00;;;;;;;3.42;2.13;;;21.60;66.50;;;;;;5224194;28;20048;-86
2021/10/05 03:47:35;;;;;;;2.38;2.03;;;21.60;66.60;;;;;;5230142;28;20048;-88
2021/10/05 03:50:09;;;;;;;2.30;1.80;;;21.60;66.50;;;;;;5211630;28;20048;-85
2021/10/05 03:52:42;;;;;;;2.05;1.80;;;21.60;66.60;;;;;;5192590;28;20048;-87
2021/10/05 03:55:14;;;;;;;2.20;1.80;;;21.60;66.50;;;;;;5209103;28;20086;-86
2021/10/05 03:57:47;;;;;;;2.47;1.63;;;21.60;66.50;;;;;;5209532;28;20053;-86
2021/10/05 04:00:20;;;;;;;3.95;1.85;;;21.60;66.50;;;;;;5201635;28;20045;-85
2021/10/05 04:02:52;;;;;;;2.13;1.58;;;21.60;66.60;;;;;;5218412;28;20041;-86
2021/10/05 04:05:25;;;;;;;2.63;1.90;;;21.60;66.60;;;;;;5231878;28;20552;-86
2021/10/05 04:07:58;;;;;;;3.00;2.03;;;21.60;66.60;;;;;;5213878;28;20051;-88
2021/10/05 04:10:30;;;;;;;2.58;1.77;;;21.70;66.60;;;;;;5197889;28;20067;-86
2021/10/05 04:13:03;;;;;;;3.83;2.00;;;21.70;67.20;;;;;;5185341;28;20060;-86
2021/10/05 04:15:36;;;;;;;2.28;1.80;;;21.70;66.60;;;;;;5183778;28;25518;-87
2021/10/05 04:18:09;;;;;;;4.50;2.00;;;21.70;66.60;;;;;;5200960;28;20513;-87
2021/10/05 04:20:42;;;;;;;3.75;2.17;;;21.70;66.70;;;;;;5185332;28;20045;-89
2021/10/05 04:23:14;;;;;;;4.80;1.40;;;21.70;66.70;;;;;;5196986;28;20514;-87
2021/10/05 04:25:47;;;;;;;2.67;1.95;;;21.70;66.70;;;;;;5203661;28;20063;-87
2021/10/05 04:28:19;;;;;;;5.38;1.80;;;21.70;66.80;;;;;;5175970;28;20063;-87
2021/10/05 04:30:52;;;;;;;3.22;1.80;;;21.70;66.80;;;;;;5189513;28;20094;-87
2021/10/05 04:33:24;;;;;;;3.40;1.85;;;21.70;66.90;;;;;;5193927;28;20498;-90
2021/10/05 04:35:57;;;;;;;4.10;2.00;;;21.70;66.90;;;;;;5182204;28;20064;-90
2021/10/05 04:38:30;;;;;;;2.65;1.80;;;21.70;66.70;;;;;;5184187;28;20714;-89
2021/10/05 04:41:02;;;;;;;4.32;1.33;;;21.70;66.70;;;;;;5171099;28;20524;-89
2021/10/05 04:43:36;;;;;;;3.03;2.00;;;21.70;66.80;;;;;;5182503;28;20040;-90
2021/10/05 04:46:09;;;;;;;4.97;2.20;;;21.70;66.70;;;;;;5202262;28;20057;-89
2021/10/05 04:48:41;;;;;;;6.55;1.98;;;21.80;66.70;;;;;;5219538;28;20048;-89
2021/10/05 04:51:16;;;;;;;4.53;1.95;;;21.80;66.70;;;;;;5181229;28;20053;-89
2021/10/05 04:53:49;;;;;;;3.47;2.00;;;21.80;66.60;;;;;;5177082;28;20067;-88
2021/10/05 04:56:22;;;;;;;4.88;2.13;;;21.90;66.70;;;;;;5161581;28;20045;-90
2021/10/05 04:58:55;;;;;;;2.95;1.67;;;21.90;66.70;;;;;;5194559;28;20482;-91
2021/10/05 05:01:28;;;;;;;5.20;1.80;;;21.90;67.30;;;;;;5165119;28;20328;-87
2021/10/05 05:04:01;;;;;;;4.88;2.15;;;21.90;66.70;;;;;;5184730;28;20048;-92
2021/10/05 05:06:34;;;;;;;27.85;4.88;;;21.90;66.60;;;;;;5179215;28;20051;-89
2021/10/05 05:09:10;;;;;;;15.38;9.80;;;21.90;66.80;;;;;;5196467;28;20056;-91
2021/10/05 05:11:50;;;;;;;14.77;9.30;;;21.90;65.00;;;;;;5194909;28;20048;-88
2021/10/05 05:14:30;;;;;;;19.05;9.27;;;21.70;64.80;;;;;;5186314;28;20059;-88
2021/10/05 05:17:03;;;;;;;;;;;21.50;65.40;;;;;;5178987;28;20041;-88
2021/10/05 05:19:41;;;;;;;13.00;8.45;;;21.20;65.30;;;;;;5209843;28;19952;-90
2021/10/05 05:22:15;;;;;;;15.93;10.32;;;21.00;66.10;;;;;;5163492;28;20044;-88
2021/10/05 05:24:48;;;;;;;13.40;9.90;;;20.90;66.50;;;;;;5191525;28;20057;-87
2021/10/05 05:27:28;;;;;;;12.40;8.60;;;20.70;66.70;;;;;;5170733;28;20064;-88
2021/10/05 05:30:01;;;;;;;13.55;9.93;;;20.50;67.80;;;;;;5187469;28;20552;-87
2021/10/05 05:32:34;;;;;;;12.68;8.80;;;20.40;67.50;;;;;;5178259;28;20048;-88
2021/10/05 05:35:11;;;;;;;;;;;20.30;67.80;;;;;;5166114;28;20056;-87
2021/10/05 05:37:44;;;;;;;9.05;6.50;;;20.20;68.20;;;;;;5164032;28;19946;-90
2021/10/05 05:40:31;;;;;;;14.07;8.43;;;20.20;68.50;;;;;;5184760;28;20048;-89
2021/10/05 05:43:07;;;;;;;12.85;6.35;;;20.20;68.30;;;;;;5185264;28;20052;-89
2021/10/05 05:45:40;;;;;;;10.18;4.57;;;20.20;68.80;;;;;;5188803;28;20537;-87
2021/10/05 05:48:16;;;;;;;7.63;4.43;;;20.30;68.90;;;;;;5186198;28;20414;-88
2021/10/05 05:50:51;;;;;;;;;;;20.30;68.90;;;;;;5191118;28;20052;-87
2021/10/05 05:53:24;;;;;;;5.20;3.90;;;20.40;68.80;;;;;;5199740;28;19924;-88
2021/10/05 05:55:56;;;;;;;6.00;3.97;;;20.50;68.60;;;;;;5165577;28;20053;-88
2021/10/05 05:58:29;;;;;;;7.13;3.42;;;20.60;68.70;;;;;;5191123;28;20052;-87
2021/10/05 06:01:02;;;;;;;8.95;3.28;;;20.70;68.60;;;;;;5177388;28;20056;-88
2021/10/05 06:03:35;;;;;;;4.57;3.30;;;20.70;68.40;;;;;;5202884;28;20608;-87
2021/10/05 06:06:07;;;;;;;11.07;3.17;;;20.80;68.50;;;;;;5200783;28;20476;-88
2021/10/05 06:08:40;;;;;;;5.75;2.90;;;20.90;68.40;;;;;;5206402;28;20055;-89
2021/10/05 06:11:13;;;;;;;6.07;2.77;;;21.00;68.40;;;;;;5178493;28;20255;-90
2021/10/05 06:13:49;;;;;;;6.40;2.53;;;21.00;68.30;;;;;;5164320;28;20075;-88
2021/10/05 06:16:22;;;;;;;3.72;2.50;;;21.10;68.40;;;;;;5203291;28;20295;-83
2021/10/05 06:18:54;;;;;;;5.28;2.03;;;21.20;68.30;;;;;;5201880;28;20045;-90
2021/10/05 06:21:27;;;;;;;7.43;2.20;;;21.30;68.30;;;;;;5180411;28;20524;-87
2021/10/05 06:23:59;;;;;;;10.43;2.88;;;21.30;68.20;;;;;;5211410;28;20406;-86
2021/10/05 06:26:32;;;;;;;11.15;3.03;;;21.40;68.30;;;;;;5184725;28;20055;-83
2021/10/05 06:29:04;;;;;;;22.70;3.63;;;21.40;68.50;;;;;;5195579;28;20057;-84
2021/10/05 06:31:37;;;;;;;35.78;4.13;;;21.50;70.00;;;;;;5205372;28;20399;-82
2021/10/05 06:34:09;;;;;;;22.20;3.60;;;21.50;70.80;;;;;;5170145;28;20064;-80
2021/10/05 06:36:41;;;;;;;27.98;3.90;;;21.60;70.80;;;;;;5209140;28;20040;-85
2021/10/05 06:39:14;;;;;;;14.03;3.20;;;21.70;70.00;;;;;;5199091;28;20520;-82
2021/10/05 06:41:54;;;;;;;22.17;3.35;;;21.70;69.50;;;;;;5198375;28;20386;-82
2021/10/05 06:44:26;;;;;;;21.25;3.03;;;21.70;69.30;;;;;;5203915;28;20063;-83
2021/10/05 06:46:59;;;;;;;15.45;3.58;;;21.70;69.10;;;;;;5193356;28;20052;-81
2021/10/05 06:49:32;;;;;;;23.02;3.50;;;21.80;69.00;;;;;;5208983;28;20060;-82
2021/10/05 06:52:08;;;;;;;28.30;3.88;;;21.80;69.00;;;;;;5204934;28;20052;-80
2021/10/05 06:54:40;;;;;;;17.58;3.83;;;21.80;69.10;;;;;;5191207;28;20056;-83
2021/10/05 06:57:13;;;;;;;25.20;3.28;;;21.80;68.90;;;;;;5224274;28;20151;-83
2021/10/05 06:59:45;;;;;;;19.27;3.72;;;21.80;68.80;;;;;;5200296;28;20041;-82
2021/10/05 07:02:18;;;;;;;11.45;3.70;;;21.90;68.80;;;;;;5202311;28;20048;-82
2021/10/05 07:04:50;;;;;;;8.80;3.63;;;21.90;68.80;;;;;;5205457;28;20423;-81
2021/10/05 07:07:23;;;;;;;14.30;3.10;;;21.90;68.70;;;;;;5182289;28;20310;-83
2021/10/05 07:09:55;;;;;;;19.10;2.72;;;21.90;68.60;;;;;;5208754;28;20044;-83
2021/10/05 07:12:28;;;;;;;21.92;3.13;;;21.90;68.60;;;;;;5215505;28;20052;-83
2021/10/05 07:15:02;;;;;;;14.88;3.05;;;21.90;68.50;;;;;;5211866;28;20063;-81
2021/10/05 07:17:36;;;;;;;10.68;3.08;;;21.90;68.40;;;;;;5187051;28;20053;-80
2021/10/05 07:20:09;;;;;;;27.92;2.88;;;22.00;68.40;;;;;;5216054;28;20044;-80
2021/10/05 07:22:41;;;;;;;13.82;2.72;;;22.00;68.40;;;;;;5190846;28;20049;-83
2021/10/05 07:25:14;;;;;;;10.07;2.60;;;22.00;68.40;;;;;;5204113;28;20527;-82
2021/10/05 07:27:54;;;;;;;15.07;2.88;;;22.00;68.40;;;;;;5216186;28;20410;-83
2021/10/05 07:30:28;;;;;;;5.70;2.58;;;22.00;68.40;;;;;;5212468;28;20056;-83
2021/10/05 07:33:02;;;;;;;10.15;2.80;;;22.10;68.50;;;;;;5201566;28;20053;-83
2021/10/05 07:35:35;;;;;;;10.07;2.45;;;22.00;68.40;;;;;;5217260;28;20048;-82
2021/10/05 07:38:07;;;;;;;16.02;3.05;;;22.10;68.40;;;;;;5205262;28;20315;-83
2021/10/05 07:40:40;;;;;;;4.20;2.13;;;22.10;68.30;;;;;;5219405;28;20060;-82
2021/10/05 07:43:12;;;;;;;4.80;2.45;;;22.10;68.30;;;;;;5203913;28;20064;-82
2021/10/05 07:45:46;;;;;;;4.60;2.20;;;22.10;68.30;;;;;;5220393;28;20040;-82
2021/10/05 07:48:19;;;;;;;7.50;2.88;;;22.10;68.30;;;;;;5184119;28;20536;-82
2021/10/05 07:50:52;;;;;;;5.85;2.70;;;22.10;68.20;;;;;;5213562;28;20049;-80
2021/10/05 07:53:24;;;;;;;5.38;2.50;;;22.10;68.20;;;;;;5182568;28;20057;-81
2021/10/05 07:55:57;;;;;;;4.20;2.38;;;22.10;68.20;;;;;;5216356;28;20059;-81
2021/10/05 07:58:29;;;;;;;5.30;2.40;;;22.10;68.20;;;;;;5192823;28;20494;-81
2021/10/05 08:01:03;;;;;;;9.75;2.47;;;22.10;68.20;;;;;;5215772;28;20048;-80
2021/10/05 08:03:36;;;;;;;4.93;2.20;;;22.20;68.20;;;;;;5212320;28;20052;-83
2021/10/05 08:06:08;;;;;;;7.32;2.55;;;22.20;68.10;;;;;;5217822;28;20420;-79
2021/10/05 08:08:41;;;;;;;8.63;2.42;;;22.20;68.10;;;;;;5201211;28;20059;-83
2021/10/05 08:11:14;;;;;;;6.63;2.60;;;22.20;68.20;;;;;;5185408;28;20053;-80
2021/10/05 08:13:47;;;;;;;2.77;1.83;;;22.20;68.10;;;;;;5213345;28;20604;-83
2021/10/05 08:16:22;;;;;;;;;;;22.20;68.10;;;;;;5184858;28;20064;-80
2021/10/05 08:18:54;;;;;;;3.17;2.20;;;22.20;68.10;;;;;;5199014;28;19924;-83
2021/10/05 08:21:28;;;;;;;5.90;2.10;;;22.20;68.10;;;;;;5218005;28;20375;-79
2021/10/05 08:24:01;;;;;;;5.68;2.55;;;22.20;68.10;;;;;;5208075;28;20603;-82
2021/10/05 08:26:34;;;;;;;9.20;2.17;;;22.20;68.10;;;;;;5213917;28;20507;-83
2021/10/05 08:29:06;;;;;;;5.33;2.40;;;22.20;68.00;;;;;;5223447;28;20504;-82
2021/10/05 08:31:39;;;;;;;5.93;2.22;;;22.20;68.10;;;;;;5224709;28;22453;-82
2021/10/05 08:34:11;;;;;;;4.20;2.28;;;22.20;68.00;;;;;;5225496;28;20049;-82
2021/10/05 08:36:44;;;;;;;10.77;2.03;;;22.30;68.00;;;;;;5228388;28;20056;-82
2021/10/05 08:39:17;;;;;;;3.60;2.20;;;22.30;68.10;;;;;;5213018;28;20037;-82
2021/10/05 08:41:49;;;;;;;3.63;2.22;;;22.30;68.00;;;;;;5226139;28;20840;-82
2021/10/05 08:44:24;;;;;;;3.80;1.80;;;22.30;68.00;;;;;;5214346;28;20410;-82
2021/10/05 08:46:57;;;;;;;3.00;1.85;;;22.30;68.00;;;;;;5211774;28;20048;-82
2021/10/05 08:49:29;;;;;;;4.85;2.30;;;22.30;68.00;;;;;;5212442;28;20044;-82
2021/10/05 08:52:02;;;;;;;15.85;2.05;;;22.30;68.00;;;;;;5227509;28;20068;-82
2021/10/05 08:54:35;;;;;;;2.90;2.60;;;22.30;68.00;;;;;;5228283;28;20055;-82
2021/10/05 08:57:07;;;;;;;4.72;2.00;;;22.30;68.00;;;;;;5223118;28;20406;-82
2021/10/05 08:59:40;;;;;;;3.33;1.70;;;22.30;68.00;;;;;;5198331;28;20064;-81
2021/10/05 09:02:45;;;;;;;3.72;1.83;;;22.30;67.90;;;;;;5202974;28;20040;-81
2021/10/05 09:05:18;;;;;;;5.30;2.45;;;22.30;67.90;;;;;;5201127;28;20057;-81
2021/10/05 09:07:54;;;;;;;3.80;1.90;;;22.30;67.90;;;;;;5200485;28;20056;-81
2021/10/05 09:10:33;;;;;;;5.82;2.47;;;22.30;67.90;;;;;;5205738;28;20056;-82
2021/10/05 09:13:15;;;;;;;4.68;1.90;;;22.30;67.80;;;;;;5197116;28;20044;-81
2021/10/05 09:15:49;;;;;;;3.70;1.95;;;22.30;67.90;;;;;;5216430;28;20084;-81
2021/10/05 09:18:21;;;;;;;4.37;1.70;;;22.30;67.80;;;;;;5197081;28;20523;-82
2021/10/05 09:20:54;;;;;;;4.95;2.10;;;22.30;67.90;;;;;;5195021;28;20056;-81
2021/10/05 09:23:26;;;;;;;3.83;2.00;;;22.30;67.90;;;;;;5205582;28;20045;-81
2021/10/05 09:25:59;;;;;;;3.92;2.22;;;22.30;67.90;;;;;;5221718;28;20053;-81
2021/10/05 09:28:33;;;;;;;10.50;2.40;;;22.30;67.90;;;;;;5219249;28;20060;-81
2021/10/05 09:31:07;;;;;;;8.63;2.63;;;22.40;67.80;;;;;;5219336;28;20040;-81
2021/10/05 09:33:39;;;;;;;4.70;2.15;;;22.40;67.80;;;;;;5203678;28;20402;-82
2021/10/05 09:36:12;;;;;;;7.72;2.65;;;22.40;67.70;;;;;;5187353;28;20063;-81
2021/10/05 09:38:45;;;;;;;2.42;2.17;;;22.40;67.80;;;;;;5212487;28;20068;-81
2021/10/05 09:41:19;;;;;;;3.85;1.98;;;22.40;67.70;;;;;;5208441;28;20060;-79
2021/10/05 09:44:00;;;;;;;4.13;1.80;;;22.40;67.50;;;;;;5197426;28;20053;-80
2021/10/05 09:46:32;;;;;;;4.05;1.95;;;22.40;67.70;;;;;;5209755;28;20049;-80
2021/10/05 09:49:10;;;;;;;2.80;1.83;;;22.40;67.60;;;;;;5212852;28;20059;-81
2021/10/05 09:51:43;;;;;;;8.02;2.28;;;22.40;67.70;;;;;;5222252;28;20049;-81
2021/10/05 09:54:16;;;;;;;3.07;1.90;;;22.40;67.70;;;;;;5202343;28;20041;-80
2021/10/05 09:56:49;;;;;;;6.47;2.20;;;22.40;67.80;;;;;;5222289;28;20048;-81
2021/10/05 09:59:22;;;;;;;4.13;1.80;;;22.30;67.80;;;;;;5215512;28;20048;-80
2021/10/05 10:01:55;;;;;;;4.93;2.23;;;22.30;67.90;;;;;;5201816;28;20580;-81
2021/10/05 10:04:28;;;;;;;;;;;22.30;68.20;;;;;;5217972;28;20060;-81
2021/10/05 10:07:01;;;;;;;7.10;2.33;;;22.20;68.90;;;;;;5187560;28;20366;-80
2021/10/05 10:09:35;;;;;;;10.35;2.70;;;22.20;70.00;;;;;;5219782;28;20055;-81
2021/10/05 10:12:08;;;;;;;4.13;2.28;;;22.20;70.70;;;;;;5204388;28;20677;-81
2021/10/05 10:14:40;;;;;;;5.20;2.40;;;22.20;72.10;;;;;;5190996;28;20056;-80
2021/10/05 10:17:22;;;;;;;11.52;2.30;;;22.20;71.80;;;;;;5222694;28;20048;-81
2021/10/05 10:19:55;;;;;;;5.38;2.38;;;22.20;72.10;;;;;;5220790;28;20514;-83
2021/10/05 10:22:28;;;;;;;7.35;2.45;;;22.10;72.40;;;;;;5226996;28;20047;-82
2021/10/05 10:25:00;;;;;;;6.00;2.22;;;22.10;72.60;;;;;;5210694;28;20040;-83
2021/10/05 10:27:45;;;;;;;9.00;2.13;;;22.10;72.50;;;;;;5193750;28;20083;-83
2021/10/05 10:30:18;;;;;;;7.95;2.28;;;22.10;72.40;;;;;;5211843;28;20060;-80
2021/10/05 10:32:57;;;;;;;4.25;2.30;;;22.10;72.40;;;;;;5224948;28;20528;-82
2021/10/05 10:35:30;;;;;;;6.35;2.20;;;22.20;72.50;;;;;;5211634;28;20151;-82
2021/10/05 10:38:03;;;;;;;4.97;2.25;;;22.10;72.40;;;;;;5200860;28;20048;-83
2021/10/05 10:40:37;;;;;;;3.50;1.88;;;22.10;72.20;;;;;;5220687;28;20049;-81
2021/10/05 10:43:14;;;;;;;5.90;2.47;;;22.10;72.00;;;;;;5189165;28;20067;-82
2021/10/05 10:45:56;;;;;;;4.88;2.10;;;22.10;71.80;;;;;;5208681;28;20072;-82
2021/10/05 10:48:28;;;;;;;9.32;2.55;;;22.20;71.80;;;;;;5212782;28;20037;-82
2021/10/05 10:51:15;;;;;;;4.45;2.55;;;22.20;71.60;;;;;;5198823;28;20627;-83
2021/10/05 10:53:48;;;;;;;5.93;1.90;;;22.10;71.60;;;;;;5185546;28;20518;-82
2021/10/05 10:56:33;;;;;;;4.72;1.90;;;22.20;71.50;;;;;;5192455;28;20079;-81
2021/10/05 10:59:12;;;;;;;4.93;2.13;;;22.20;71.40;;;;;;5188246;28;20057;-82
2021/10/05 11:01:46;;;;;;;7.00;2.55;;;22.20;71.30;;;;;;5219531;28;20041;-81
2021/10/05 11:04:20;;;;;;;5.72;2.88;;;22.10;71.30;;;;;;5220348;28;20056;-81
2021/10/05 11:06:56;;;;;;;9.80;2.78;;;22.20;71.30;;;;;;5215187;28;20052;-83
2021/10/05 11:09:34;;;;;;;5.28;1.95;;;22.10;71.20;;;;;;5210918;28;20048;-82
2021/10/05 11:12:08;;;;;;;4.97;2.15;;;22.20;71.20;;;;;;5217364;28;20056;-82
2021/10/05 11:14:44;;;;;;;5.40;2.08;;;22.10;71.20;;;;;;5181883;28;20064;-82
2021/10/05 11:17:17;;;;;;;7.22;2.10;;;22.10;71.10;;;;;;5216586;28;20055;-82
2021/10/05 11:19:50;;;;;;;6.95;2.10;;;22.10;71.10;;;;;;5195220;28;20106;-82
2021/10/05 11:22:24;;;;;;;6.32;1.98;;;22.10;71.00;;;;;;5207706;28;20048;-82
2021/10/05 11:24:57;;;;;;;8.60;2.40;;;22.10;71.00;;;;;;5211208;28;20052;-80
2021/10/05 11:27:29;;;;;;;6.78;2.05;;;22.10;71.00;;;;;;5210063;28;20059;-83
2021/10/05 11:30:05;;;;;;;11.18;2.92;;;22.10;71.00;;;;;;5210830;28;20357;-82
2021/10/05 11:32:40;;;;;;;10.90;2.28;;;22.10;71.10;;;;;;5198648;28;20049;-82
2021/10/05 11:35:12;;;;;;;6.68;2.08;;;22.10;71.10;;;;;;5213035;28;20049;-80
2021/10/05 11:37:45;;;;;;;7.50;2.25;;;22.10;71.20;;;;;;5201423;28;20091;-80
2021/10/05 11:40:18;;;;;;;3.55;2.42;;;22.10;71.20;;;;;;5206421;28;20107;-83
2021/10/05 11:42:50;;;;;;;5.55;2.72;;;22.10;71.30;;;;;;5208210;28;20048;-81
2021/10/05 11:45:28;;;;;;;8.13;2.17;;;22.10;71.30;;;;;;5193677;28;20702;-80
2021/10/05 11:48:00;;;;;;;5.05;2.60;;;22.10;71.30;;;;;;5186320;28;20051;-81
2021/10/05 11:50:33;;;;;;;4.15;2.50;;;22.10;71.40;;;;;;5205606;28;20052;-82
2021/10/05 11:53:05;;;;;;;6.63;2.88;;;22.10;71.40;;;;;;5208207;28;20445;-84
2021/10/05 11:55:38;;;;;;;5.22;3.13;;;22.10;71.40;;;;;;5180775;28;20224;-81
2021/10/05 11:58:11;;;;;;;4.88;2.20;;;22.10;71.20;;;;;;5201437;28;20603;-84
2021/10/05 12:00:43;;;;;;;8.20;2.20;;;22.10;71.10;;;;;;5217492;28;22194;-83
2021/10/05 12:03:16;;;;;;;6.88;2.50;;;22.10;71.10;;;;;;5217904;28;20291;-85
2021/10/05 12:05:48;;;;;;;8.52;2.35;;;22.10;70.90;;;;;;5205735;28;20048;-83
2021/10/05 12:08:21;;;;;;;6.72;2.47;;;22.10;70.80;;;;;;5184202;28;20060;-83
2021/10/05 12:10:54;;;;;;;10.77;2.80;;;22.10;70.80;;;;;;5213019;28;20055;-82
2021/10/05 12:13:27;;;;;;;7.35;2.80;;;22.10;71.30;;;;;;5208720;28;20417;-81
2021/10/05 12:15:59;;;;;;;10.48;2.88;;;22.20;70.70;;;;;;5201292;28;20048;-83
2021/10/05 12:18:33;;;;;;;8.90;3.33;;;22.20;70.80;;;;;;5215102;28;20410;-86
2021/10/05 12:21:15;;;;;;;10.02;2.70;;;22.20;71.00;;;;;;5195491;28;20395;-85
2021/10/05 12:23:50;;;;;;;18.23;3.50;;;22.20;71.20;;;;;;5212979;28;20056;-86
2021/10/05 12:26:23;;;;;;;11.63;3.03;;;22.30;71.40;;;;;;5174675;28;20052;-85
2021/10/05 12:29:04;;;;;;;7.57;2.88;;;22.30;71.50;;;;;;5186441;28;20040;-85
2021/10/05 12:31:37;;;;;;;15.02;3.38;;;22.30;71.50;;;;;;5182891;28;20872;-85
2021/10/05 12:34:10;;;;;;;13.38;3.83;;;22.50;71.40;;;;;;5176506;28;21222;-85
2021/10/05 12:36:42;;;;;;;21.90;3.78;;;22.60;71.30;;;;;;5211551;28;20040;-83
2021/10/05 12:39:18;;;;;;;11.95;3.05;;;22.70;71.20;;;;;;5203873;28;20041;-85
2021/10/05 12:42:05;;;;;;;12.15;2.95;;;22.70;71.00;;;;;;5205955;28;20045;-84
2021/10/05 12:44:37;;;;;;;9.18;3.33;;;22.80;70.90;;;;;;5188950;28;20044;-84
2021/10/05 12:47:11;;;;;;;7.50;3.15;;;22.80;68.30;;;;;;5215008;28;20175;-83
2021/10/05 12:49:51;;;;;;;11.38;3.13;;;22.80;66.10;;;;;;5170806;28;20084;-84
2021/10/05 12:52:24;;;;;;;14.73;3.30;;;22.90;66.20;;;;;;5184001;28;20052;-83
2021/10/05 12:54:58;;;;;;;9.07;2.85;;;22.90;67.00;;;;;;5145620;28;20075;-84
2021/10/05 12:57:31;;;;;;;12.23;2.90;;;22.90;67.30;;;;;;5176235;28;20063;-83
2021/10/05 13:00:08;;;;;;;12.40;3.20;;;23.00;67.30;;;;;;5184836;28;20261;-81
2021/10/05 13:02:41;;;;;;;16.02;2.90;;;23.10;67.50;;;;;;5176337;28;20052;-83
2021/10/05 13:05:15;;;;;;;11.80;3.80;;;23.10;67.50;;;;;;5193699;28;20064;-83
2021/10/05 13:07:49;;;;;;;6.28;2.88;;;23.10;66.80;;;;;;5171235;28;20331;-83
2021/10/05 13:10:23;;;;;;;13.23;3.08;;;23.10;65.50;;;;;;5207998;28;20064;-83
2021/10/05 13:12:55;;;;;;;8.93;3.28;;;23.00;65.40;;;;;;5209271;28;20049;-81
2021/10/05 13:15:33;;;;;;;6.00;2.38;;;23.00;64.80;;;;;;5196238;28;20040;-83
2021/10/05 13:18:06;;;;;;;3.08;2.50;;;23.00;64.60;;;;;;5216449;28;20036;-84
2021/10/05 13:20:38;;;;;;;5.57;2.47;;;23.00;63.80;;;;;;5214484;28;20048;-84
2021/10/05 13:23:11;;;;;;;4.85;2.10;;;23.00;63.70;;;;;;5188609;28;20481;-84
2021/10/05 13:25:43;;;;;;;4.82;2.28;;;23.00;63.50;;;;;;5211494;28;20319;-84
2021/10/05 13:28:17;;;;;;;4.68;3.42;;;23.00;63.10;;;;;;5210676;28;20297;-83
2021/10/05 13:30:49;;;;;;;10.02;2.05;;;23.00;63.00;;;;;;5191790;28;20037;-83
2021/10/05 13:33:22;;;;;;;3.70;2.50;;;23.00;62.90;;;;;;5203782;28;20051;-82
2021/10/05 13:35:55;;;;;;;2.50;2.17;;;23.00;62.70;;;;;;5214121;28;20767;-83